Time;durP1;ratioP1;P1;durP2;ratioP2;P2;SDS_P1;SDS_P2;PMS_P1;PMS_P2;Temp;Humidity;BMP_temperature;BMP_pressure;BME280_temperature;BME280_humidity;BME280_pressure;Samples;Min_cycle;Max_cycle;Signal;HPM_P1;HPM_P2
2023/05/05 00:00:53;;;;;;;1999.90;999.90;;;18.00;99.90;;;;;;4992713;28;20410;-70
2023/05/05 00:03:22;;;;;;;1999.90;999.90;;;18.00;99.90;;;;;;4992440;28;20182;-70
2023/05/05 00:05:48;;;;;;;1999.90;999.90;;;18.00;99.90;;;;;;4992546;28;20419;-70
2023/05/05 00:08:14;;;;;;;1999.90;999.90;;;17.90;99.90;;;;;;4992628;28;20419;-70
2023/05/05 00:10:41;;;;;;;1999.90;999.90;;;17.80;99.90;;;;;;4992510;28;20418;-70
2023/05/05 00:13:07;;;;;;;1999.90;999.90;;;17.80;99.90;;;;;;4992135;28;20466;-70
2023/05/05 00:15:33;;;;;;;1999.90;999.90;;;17.70;99.90;;;;;;4992651;28;20801;-70
2023/05/05 00:17:58;;;;;;;1999.90;999.90;;;17.70;99.90;;;;;;4992533;28;20491;-70
2023/05/05 00:20:24;;;;;;;1999.90;999.90;;;17.70;99.90;;;;;;4992518;28;20231;-70
2023/05/05 00:22:49;;;;;;;1999.90;999.90;;;17.70;99.90;;;;;;4992272;28;20184;-70
2023/05/05 00:25:15;;;;;;;1999.90;999.90;;;17.80;99.90;;;;;;4992379;28;20197;-70
2023/05/05 00:27:41;;;;;;;1999.90;999.90;;;17.80;99.90;;;;;;4992422;28;20180;-70
2023/05/05 00:30:06;;;;;;;1999.90;999.90;;;17.80;99.90;;;;;;4992488;28;20183;-70
2023/05/05 00:32:32;;;;;;;1999.90;999.90;;;17.90;99.90;;;;;;4992190;28;20213;-70
2023/05/05 00:34:58;;;;;;;1999.90;999.90;;;18.00;99.90;;;;;;4992321;28;20197;-70
2023/05/05 00:37:24;;;;;;;1999.90;999.90;;;18.10;99.90;;;;;;4992596;28;20212;-70
2023/05/05 00:39:49;;;;;;;1999.90;999.90;;;18.20;99.90;;;;;;4992334;28;20446;-70
2023/05/05 00:42:15;;;;;;;1999.90;999.90;;;18.20;99.90;;;;;;4991984;28;20678;-69
2023/05/05 00:44:41;;;;;;;1999.90;999.90;;;18.30;99.90;;;;;;4992256;28;20284;-70
2023/05/05 00:47:08;;;;;;;1999.90;999.90;;;18.30;99.90;;;;;;4992301;28;20225;-70
2023/05/05 00:49:34;;;;;;;1999.90;999.90;;;18.40;99.90;;;;;;4992278;28;20421;-70
2023/05/05 00:52:00;;;;;;;1999.90;999.90;;;18.40;99.90;;;;;;4991861;28;20424;-70
2023/05/05 00:54:26;;;;;;;1999.90;999.90;;;18.50;99.90;;;;;;4992059;28;20429;-69
2023/05/05 00:56:52;;;;;;;1999.90;999.90;;;18.50;99.90;;;;;;4992149;28;20310;-70
2023/05/05 00:59:18;;;;;;;1999.90;999.90;;;18.50;99.90;;;;;;4992258;28;20722;-70
2023/05/05 01:01:44;;;;;;;1999.90;999.90;;;18.50;99.90;;;;;;4991909;28;20441;-70
2023/05/05 01:04:10;;;;;;;1999.90;999.90;;;18.40;99.90;;;;;;4992118;28;20199;-69
2023/05/05 01:07:09;;;;;;;1999.90;999.90;;;18.40;99.90;;;;;;4992126;28;20419;-70
2023/05/05 01:09:51;;;;;;;1999.90;999.90;;;18.40;99.90;;;;;;4992090;28;20230;-70
2023/05/05 01:12:50;;;;;;;1999.90;999.90;;;18.30;99.90;;;;;;4991885;28;20455;-70
2023/05/05 01:15:52;;;;;;;1999.90;999.90;;;18.30;99.90;;;;;;4987385;28;20555;-69
2023/05/05 01:18:33;;;;;;;1999.90;999.90;;;18.30;99.90;;;;;;4978653;28;20429;-70
2023/05/05 01:21:10;;;;;;;1999.90;999.90;;;18.20;99.90;;;;;;4995324;28;20403;-69
2023/05/05 01:23:53;;;;;;;1999.90;999.90;;;18.20;99.90;;;;;;4995481;28;20406;-70
2023/05/05 01:26:22;;;;;;;1999.90;999.90;;;18.10;99.90;;;;;;4995692;28;20508;-70
2023/05/05 01:29:06;;;;;;;1999.90;999.90;;;18.10;99.90;;;;;;4995420;28;20491;-70
2023/05/05 01:31:56;;;;;;;1999.90;999.90;;;18.10;99.90;;;;;;4995170;28;20420;-70
2023/05/05 01:34:26;;;;;;;1999.90;999.90;;;18.20;99.90;;;;;;4995201;28;20420;-70
2023/05/05 01:37:00;;;;;;;1999.90;999.90;;;18.10;99.90;;;;;;4995485;28;20399;-70
2023/05/05 01:39:32;;;;;;;1999.90;999.90;;;18.10;99.90;;;;;;4995212;28;20393;-69
2023/05/05 01:42:05;;;;;;;1999.90;999.90;;;18.10;99.90;;;;;;4994962;28;20911;-70
2023/05/05 01:44:33;;;;;;;1999.90;999.90;;;18.00;99.90;;;;;;4995074;28;20417;-70
2023/05/05 01:47:01;;;;;;;1999.90;999.90;;;17.90;99.90;;;;;;4995143;28;20499;-70
2023/05/05 01:49:27;;;;;;;1999.90;999.90;;;17.90;99.90;;;;;;4995219;28;20764;-70
2023/05/05 01:51:56;;;;;;;1999.90;999.90;;;17.90;99.90;;;;;;4994647;28;20386;-70
2023/05/05 01:54:23;;;;;;;1999.90;999.90;;;17.90;99.90;;;;;;4994903;28;20455;-70
2023/05/05 01:56:50;;;;;;;1999.90;999.90;;;17.90;99.90;;;;;;4994951;28;20910;-70
2023/05/05 01:59:17;;;;;;;1999.90;999.90;;;17.90;99.90;;;;;;4994779;28;20873;-69
2023/05/05 02:01:45;;;;;;;1999.90;999.90;;;17.90;99.90;;;;;;4994548;28;20424;-70
2023/05/05 02:04:13;;;;;;;1999.90;999.90;;;17.80;99.90;;;;;;4994792;28;21152;-70
2023/05/05 02:06:39;;;;;;;1999.90;999.90;;;17.80;99.90;;;;;;4994715;28;20761;-70
2023/05/05 02:09:07;;;;;;;1999.90;999.90;;;17.80;99.90;;;;;;4994688;28;20419;-70
2023/05/05 02:11:33;;;;;;;1999.90;999.90;;;17.70;99.90;;;;;;4994314;28;20463;-70
2023/05/05 02:14:00;;;;;;;1999.90;999.90;;;17.60;99.90;;;;;;4994333;28;20891;-70
2023/05/05 02:16:26;;;;;;;1999.90;999.90;;;17.60;99.90;;;;;;4994576;28;20413;-70
2023/05/05 02:18:53;;;;;;;1999.90;999.90;;;17.60;99.90;;;;;;4994485;28;20413;-69
2023/05/05 02:21:19;;;;;;;1999.90;999.90;;;17.60;99.90;;;;;;4994189;28;20441;-70
2023/05/05 02:23:50;;;;;;;1999.90;999.90;;;17.60;99.90;;;;;;4994174;28;20922;-70
2023/05/05 02:26:18;;;;;;;1999.90;999.90;;;17.70;99.90;;;;;;4994402;28;20777;-70
2023/05/05 02:29:13;;;;;;;1999.90;999.90;;;17.70;99.90;;;;;;4993175;28;20413;-70
2023/05/05 02:31:52;;;;;;;1999.90;999.90;;;17.80;99.90;;;;;;4987342;28;20422;-69
2023/05/05 02:34:23;;;;;;;1999.90;999.90;;;17.70;99.90;;;;;;4994155;28;20460;-70
2023/05/05 02:36:52;;;;;;;1999.90;999.90;;;17.70;99.90;;;;;;4994092;28;20405;-69
2023/05/05 02:39:42;;;;;;;1999.90;999.90;;;17.70;99.90;;;;;;4994087;28;20469;-69
2023/05/05 02:42:09;;;;;;;1999.90;999.90;;;17.70;99.90;;;;;;4993892;28;20390;-70
2023/05/05 02:44:37;;;;;;;1999.90;999.90;;;17.70;99.90;;;;;;4993978;28;20567;-69
2023/05/05 02:47:03;;;;;;;1999.90;999.90;;;17.60;99.90;;;;;;4994085;28;20748;-69
2023/05/05 02:49:29;;;;;;;1999.90;999.90;;;17.60;99.90;;;;;;4993910;28;20937;-70
2023/05/05 02:51:56;;;;;;;1999.90;999.90;;;17.60;99.90;;;;;;4993441;28;20484;-69
2023/05/05 02:54:22;;;;;;;1999.90;999.90;;;17.60;99.90;;;;;;4993947;28;20236;-70
2023/05/05 02:56:52;;;;;;;1999.90;999.90;;;17.50;99.90;;;;;;4993801;28;20916;-70
2023/05/05 02:59:33;;;;;;;1999.90;999.90;;;17.50;99.90;;;;;;4993827;28;20177;-70
2023/05/05 03:02:20;;;;;;;1999.90;999.90;;;17.40;99.90;;;;;;4993559;28;20479;-69
2023/05/05 03:04:53;;;;;;;1999.90;999.90;;;17.40;99.90;;;;;;4993599;28;20433;-69
2023/05/05 03:07:33;;;;;;;1999.90;999.90;;;17.30;99.90;;;;;;4993692;28;20803;-69
2023/05/05 03:10:20;;;;;;;1999.90;999.90;;;17.20;99.90;;;;;;4994010;28;20499;-69
2023/05/05 03:12:52;;;;;;;1999.90;999.90;;;17.10;99.90;;;;;;4993076;28;20461;-69
2023/05/05 03:15:18;;;;;;;1999.90;999.90;;;17.00;99.90;;;;;;4993372;28;20457;-69
2023/05/05 03:17:45;;;;;;;1999.90;999.90;;;16.90;99.90;;;;;;4993330;28;20413;-70
2023/05/05 03:20:13;;;;;;;1999.90;999.90;;;16.90;99.90;;;;;;4993342;28;20409;-70
2023/05/05 03:22:38;;;;;;;1999.90;999.90;;;16.80;99.90;;;;;;4992936;28;20404;-69
2023/05/05 03:25:05;;;;;;;1999.90;999.90;;;16.70;99.90;;;;;;4993276;28;20460;-69
2023/05/05 03:27:30;;;;;;;1999.90;999.90;;;16.70;99.90;;;;;;4993196;28;20205;-69
2023/05/05 03:29:56;;;;;;;1999.90;999.90;;;16.60;99.90;;;;;;4993185;28;20414;-69
2023/05/05 03:32:22;;;;;;;1999.90;999.90;;;16.60;99.90;;;;;;4992868;28;20191;-69
2023/05/05 03:34:49;;;;;;;1999.90;999.90;;;16.60;99.90;;;;;;4993043;28;20561;-70
2023/05/05 03:37:14;;;;;;;1999.90;999.90;;;16.60;99.90;;;;;;4992974;28;20419;-69
2023/05/05 03:39:40;;;;;;;1999.90;999.90;;;16.60;99.90;;;;;;4992717;28;20408;-68
2023/05/05 03:42:05;;;;;;;1999.90;999.90;;;16.50;99.90;;;;;;4992774;28;20174;-69
2023/05/05 03:44:31;;;;;;;1999.90;999.90;;;16.50;99.90;;;;;;4992926;28;20200;-69
2023/05/05 03:46:57;;;;;;;1999.90;999.90;;;16.50;99.90;;;;;;4993056;28;20195;-69
2023/05/05 03:49:22;;;;;;;1999.90;999.90;;;16.50;99.90;;;;;;4992896;28;20173;-69
2023/05/05 03:51:48;;;;;;;1999.90;999.90;;;16.40;99.90;;;;;;4992493;28;20180;-70
2023/05/05 03:54:13;;;;;;;1999.90;999.90;;;16.40;99.90;;;;;;4992742;28;20208;-69
2023/05/05 03:56:39;;;;;;;1999.90;999.90;;;16.30;99.90;;;;;;4992926;28;20184;-69
2023/05/05 03:59:05;;;;;;;1999.90;999.90;;;16.30;99.90;;;;;;4992809;28;20536;-69
2023/05/05 04:01:31;;;;;;;1999.90;999.90;;;16.30;99.90;;;;;;4992547;28;20431;-69
2023/05/05 04:03:56;;;;;;;1999.90;999.90;;;16.30;99.90;;;;;;4992566;28;20747;-69
2023/05/05 04:06:23;;;;;;;1999.90;999.90;;;16.10;99.90;;;;;;4992565;28;20180;-70
2023/05/05 04:08:48;;;;;;;1999.90;999.90;;;16.10;99.90;;;;;;4992589;28;20184;-70
2023/05/05 04:11:14;;;;;;;1999.90;999.90;;;16.10;99.90;;;;;;4992339;28;20416;-70
2023/05/05 04:13:40;;;;;;;1999.90;999.90;;;16.10;99.90;;;;;;4992326;28;20213;-69
2023/05/05 04:16:08;;;;;;;1999.90;999.90;;;16.10;99.90;;;;;;4992605;28;20901;-69
2023/05/05 04:18:33;;;;;;;1999.90;999.90;;;16.10;99.90;;;;;;4992485;28;20412;-70
2023/05/05 04:20:59;;;;;;;1999.90;999.90;;;16.20;99.90;;;;;;4992111;28;20452;-69
2023/05/05 04:23:25;;;;;;;1999.90;999.90;;;16.20;99.90;;;;;;4992609;28;20178;-69
2023/05/05 04:25:51;;;;;;;1999.90;999.90;;;16.20;99.90;;;;;;4992471;28;20437;-69
2023/05/05 04:28:16;;;;;;;1999.90;999.90;;;16.20;99.90;;;;;;4992598;28;20608;-69
2023/05/05 04:30:42;;;;;;;1999.90;999.90;;;16.20;99.90;;;;;;4992437;28;20179;-70
2023/05/05 04:33:07;;;;;;;1999.90;999.90;;;16.30;99.90;;;;;;4992219;28;20200;-69
2023/05/05 04:35:33;;;;;;;1999.90;999.90;;;16.30;99.90;;;;;;4992263;28;20181;-70
2023/05/05 04:37:59;;;;;;;1999.90;999.90;;;16.20;99.90;;;;;;4992422;28;20176;-70
2023/05/05 04:40:25;;;;;;;1999.90;999.90;;;16.20;99.90;;;;;;4992334;28;20229;-70
2023/05/05 04:42:51;;;;;;;1999.90;999.90;;;16.30;99.90;;;;;;4991953;28;20678;-69
2023/05/05 04:45:16;;;;;;;1999.90;999.90;;;16.30;99.90;;;;;;4992255;28;20431;-70
2023/05/05 04:47:42;;;;;;;1999.90;999.90;;;16.40;99.90;;;;;;4992326;28;20177;-69
2023/05/05 04:50:08;;;;;;;1999.90;999.90;;;16.40;99.90;;;;;;4992335;28;20194;-70
2023/05/05 04:52:34;;;;;;;1999.90;999.90;;;16.40;99.90;;;;;;4995239;28;20714;-70
2023/05/05 04:55:00;;;;;;;1999.90;999.90;;;16.30;99.90;;;;;;4995952;28;20428;-70
2023/05/05 04:57:25;;;;;;;1999.90;999.90;;;16.40;99.90;;;;;;4996171;28;20179;-70
2023/05/05 04:59:52;;;;;;;1999.90;999.90;;;16.40;99.90;;;;;;4996004;28;20771;-69
2023/05/05 05:02:17;;;;;;;1999.90;999.90;;;16.30;99.90;;;;;;4995743;28;20173;-70
2023/05/05 05:04:43;;;;;;;1999.90;999.90;;;16.20;99.90;;;;;;4995714;28;20784;-69
2023/05/05 05:07:08;;;;;;;1999.90;999.90;;;16.20;99.90;;;;;;4995857;28;20230;-69
2023/05/05 05:09:34;;;;;;;1999.90;999.90;;;16.20;99.90;;;;;;4995882;28;20233;-70
2023/05/05 05:12:03;;;;;;;1999.90;999.90;;;16.20;99.90;;;;;;4995557;28;20166;-70
2023/05/05 05:14:29;;;;;;;1999.90;999.90;;;16.30;99.90;;;;;;4995548;28;20262;-69
2023/05/05 05:16:54;;;;;;;1999.90;999.90;;;16.40;99.90;;;;;;4995656;28;20819;-69
2023/05/05 05:19:20;;;;;;;1999.90;999.90;;;16.40;99.90;;;;;;4995597;28;20263;-70
2023/05/05 05:21:46;;;;;;;1999.90;999.90;;;16.40;99.90;;;;;;4995319;28;20167;-69
2023/05/05 05:24:11;;;;;;;1999.90;999.90;;;16.50;99.90;;;;;;5013166;28;20200;-69
2023/05/05 05:26:37;;;;;;;1999.90;999.90;;;16.50;99.90;;;;;;5015102;28;20179;-69
2023/05/05 05:29:03;;;;;;;1999.90;999.90;;;16.50;99.90;;;;;;5015123;28;20175;-70
2023/05/05 05:31:29;;;;;;;1999.90;999.90;;;16.50;99.90;;;;;;5014754;28;20456;-69
2023/05/05 05:33:55;;;;;;;1999.90;999.90;;;16.50;99.90;;;;;;5014692;28;20471;-69
2023/05/05 05:36:21;;;;;;;1999.90;999.90;;;16.50;99.90;;;;;;5015076;28;20498;-69
2023/05/05 05:38:46;;;;;;;1999.90;999.90;;;16.50;99.90;;;;;;5014939;28;20191;-70
2023/05/05 05:41:12;;;;;;;1999.90;999.90;;;16.60;99.90;;;;;;5014586;28;20172;-70
2023/05/05 05:43:38;;;;;;;1999.90;999.90;;;16.60;99.90;;;;;;5014743;28;20668;-69
2023/05/05 05:46:03;;;;;;;1999.90;999.90;;;16.60;99.90;;;;;;5014749;28;20178;-69
2023/05/05 05:48:29;;;;;;;1999.90;999.90;;;16.60;99.90;;;;;;5014645;28;20670;-69
2023/05/05 05:50:55;;;;;;;1999.90;999.90;;;16.60;99.90;;;;;;5014604;28;20183;-69
2023/05/05 05:53:21;;;;;;;1999.90;999.90;;;16.60;99.90;;;;;;5014541;28;20630;-69
2023/05/05 05:55:47;;;;;;;1999.90;999.90;;;16.60;99.90;;;;;;5014509;28;20486;-69
2023/05/05 05:58:13;;;;;;;1999.90;999.90;;;16.60;99.90;;;;;;5014550;28;20502;-69
2023/05/05 06:00:38;;;;;;;1999.90;999.90;;;16.60;99.90;;;;;;5014466;28;20216;-69
2023/05/05 06:03:04;;;;;;;1999.90;999.90;;;16.60;99.90;;;;;;5013785;28;20164;-69
2023/05/05 06:05:30;;;;;;;1999.90;999.90;;;16.60;99.90;;;;;;5014357;28;20263;-69
2023/05/05 06:07:56;;;;;;;1999.90;999.90;;;16.70;99.90;;;;;;5014528;28;20200;-70
2023/05/05 06:10:22;;;;;;;1999.90;999.90;;;16.80;99.90;;;;;;5014420;28;20844;-69
2023/05/05 06:12:47;;;;;;;1999.90;999.90;;;16.90;99.90;;;;;;5013940;28;20699;-69
2023/05/05 06:15:13;;;;;;;1999.90;999.90;;;16.90;99.90;;;;;;5013998;28;20450;-69
2023/05/05 06:17:38;;;;;;;1999.90;999.90;;;16.90;99.90;;;;;;5013999;28;20176;-70
2023/05/05 06:20:05;;;;;;;1999.90;999.90;;;17.00;99.90;;;;;;5014094;28;20165;-69
2023/05/05 06:22:30;;;;;;;1999.90;999.90;;;17.10;99.90;;;;;;5013661;28;20194;-70
2023/05/05 06:24:56;;;;;;;1999.90;999.90;;;17.20;99.90;;;;;;5013971;28;20423;-70
2023/05/05 06:27:21;;;;;;;1999.90;999.90;;;17.30;99.90;;;;;;5013985;28;20166;-69
2023/05/05 06:29:47;;;;;;;1999.90;999.90;;;17.40;99.90;;;;;;5013949;28;20183;-70
2023/05/05 06:32:13;;;;;;;1999.90;999.90;;;17.50;99.90;;;;;;5013417;28;20557;-69
2023/05/05 06:34:39;;;;;;;1999.90;999.90;;;17.60;99.90;;;;;;5013765;28;20436;-69
2023/05/05 06:37:04;;;;;;;1999.90;999.90;;;17.60;99.90;;;;;;5013845;28;20636;-70
2023/05/05 06:39:30;;;;;;;1999.90;999.90;;;17.70;99.90;;;;;;5013774;28;20172;-70
2023/05/05 06:41:55;;;;;;;1999.90;999.90;;;17.80;99.90;;;;;;5013431;28;20171;-70
2023/05/05 06:44:21;;;;;;;1999.90;999.90;;;17.90;99.90;;;;;;5013613;28;20193;-70
2023/05/05 06:46:46;;;;;;;1999.90;999.90;;;18.00;99.90;;;;;;5013549;28;20169;-70
2023/05/05 06:49:12;;;;;;;1999.90;999.90;;;18.00;99.90;;;;;;5013623;28;20631;-70
2023/05/05 06:51:37;;;;;;;1999.90;999.90;;;18.00;99.90;;;;;;5013263;28;20177;-70
2023/05/05 06:54:03;;;;;;;1999.90;999.90;;;18.00;99.90;;;;;;5013247;28;20291;-70
2023/05/05 06:56:29;;;;;;;1999.90;999.90;;;18.00;99.90;;;;;;5013435;28;20173;-70
2023/05/05 06:58:55;;;;;;;1999.90;999.90;;;18.00;99.90;;;;;;5013437;28;20581;-69
2023/05/05 07:01:20;;;;;;;1999.90;999.90;;;18.10;99.90;;;;;;5012971;28;20472;-70
2023/05/05 07:03:46;;;;;;;1999.90;999.90;;;18.10;99.90;;;;;;5013217;28;20195;-70
2023/05/05 07:06:12;;;;;;;1999.90;999.90;;;18.00;99.90;;;;;;5013394;28;20202;-70
2023/05/05 07:08:37;;;;;;;1999.90;999.90;;;17.90;99.90;;;;;;5013260;28;20172;-70
2023/05/05 07:11:03;;;;;;;1999.90;999.90;;;18.00;99.90;;;;;;5012974;28;20177;-70
2023/05/05 07:13:28;;;;;;;1999.90;999.90;;;18.10;99.90;;;;;;5012408;28;20209;-70
2023/05/05 07:15:54;;;;;;;1999.90;999.90;;;18.10;99.90;;;;;;5012918;28;20169;-70
2023/05/05 07:18:20;;;;;;;1999.90;999.90;;;18.20;99.90;;;;;;5013274;28;20183;-70
2023/05/05 07:20:45;;;;;;;1999.90;999.90;;;18.30;99.90;;;;;;5012973;28;20193;-70
2023/05/05 07:23:11;;;;;;;1999.90;999.90;;;18.40;99.90;;;;;;5012796;28;20179;-71
2023/05/05 07:25:37;;;;;;;1999.90;999.90;;;18.50;99.90;;;;;;5012899;28;20548;-70
2023/05/05 07:28:03;;;;;;;1999.90;999.90;;;18.60;99.90;;;;;;5012895;28;20175;-70
2023/05/05 07:30:29;;;;;;;1999.90;999.90;;;18.70;99.90;;;;;;5012730;28;20253;-70
2023/05/05 07:32:55;;;;;;;1999.90;999.90;;;18.80;99.90;;;;;;5012593;28;20547;-70
2023/05/05 07:35:21;;;;;;;1999.90;999.90;;;18.90;99.90;;;;;;5012684;28;20187;-70
2023/05/05 07:37:47;;;;;;;1999.90;999.90;;;19.00;99.90;;;;;;5012760;28;20411;-70
2023/05/05 07:40:13;;;;;;;1999.90;999.90;;;19.20;99.90;;;;;;5012746;28;20407;-70
2023/05/05 07:42:38;;;;;;;1999.90;999.90;;;19.30;99.90;;;;;;5012440;28;20175;-70
2023/05/05 07:45:05;;;;;;;1999.90;999.90;;;19.40;99.90;;;;;;5012505;28;20327;-70
2023/05/05 07:47:31;;;;;;;1999.90;999.90;;;19.40;99.90;;;;;;5012532;28;20667;-70
2023/05/05 07:49:56;;;;;;;1999.90;999.90;;;19.50;99.90;;;;;;5012535;28;20544;-71
2023/05/05 07:52:22;;;;;;;1999.90;999.90;;;19.50;99.90;;;;;;5012156;28;20459;-71
2023/05/05 07:54:48;;;;;;;1999.90;999.90;;;19.50;99.90;;;;;;5012415;28;20189;-71
2023/05/05 07:57:14;;;;;;;1999.90;999.90;;;19.60;99.90;;;;;;5012383;28;20162;-70
2023/05/05 07:59:42;;;;;;;1999.90;999.90;;;19.70;99.90;;;;;;5012300;28;20405;-70
2023/05/05 08:02:09;;;;;;;1999.90;999.90;;;19.70;99.90;;;;;;5012133;28;20413;-71
2023/05/05 08:04:34;;;;;;;1999.90;999.90;;;19.70;99.90;;;;;;5006948;28;20440;-70
2023/05/05 08:07:00;;;;;;;1999.90;999.90;;;19.70;99.90;;;;;;4992629;28;20420;-70
2023/05/05 08:09:25;;;;;;;1999.90;999.90;;;19.90;99.90;;;;;;4992651;28;20178;-70
2023/05/05 08:11:51;;;;;;;1999.90;999.90;;;20.10;99.90;;;;;;4992378;28;20209;-70
2023/05/05 08:14:16;;;;;;;1999.90;999.90;;;20.40;99.90;;;;;;4992366;28;20207;-70
2023/05/05 08:16:42;;;;;;;1999.90;999.90;;;20.50;99.90;;;;;;4989531;28;20174;-70
2023/05/05 08:19:07;;;;;;;1999.90;999.90;;;20.60;99.90;;;;;;4975081;28;20191;-70
2023/05/05 08:21:33;;;;;;;1999.90;999.90;;;20.80;99.90;;;;;;4991930;28;20195;-70
2023/05/05 08:23:59;;;;;;;1999.90;999.90;;;21.00;99.90;;;;;;4998076;28;20565;-70
2023/05/05 08:26:24;;;;;;;1999.90;999.90;;;21.10;99.90;;;;;;5011647;28;20184;-70
2023/05/05 08:28:53;;;;;;;1999.90;999.90;;;21.20;99.90;;;;;;5011452;28;20241;-70
2023/05/05 08:31:19;;;;;;;1999.90;999.90;;;21.20;99.90;;;;;;5010958;28;20653;-71
2023/05/05 08:33:45;;;;;;;1999.90;999.90;;;21.20;99.90;;;;;;5012036;28;20439;-71
2023/05/05 08:36:12;;;;;;;1999.90;999.90;;;21.20;99.90;;;;;;4994191;28;20185;-71
2023/05/05 08:38:38;;;;;;;1999.90;999.90;;;21.40;99.90;;;;;;5011049;28;20222;-71
2023/05/05 08:41:07;;;;;;;1999.90;999.90;;;21.70;99.90;;;;;;5012042;28;20446;-70
2023/05/05 08:43:33;;;;;;;1999.90;999.90;;;21.90;99.90;;;;;;4994298;28;20187;-71
2023/05/05 08:45:59;;;;;;;1999.90;999.90;;;22.00;99.90;;;;;;5011278;28;20442;-69
2023/05/05 08:48:27;;;;;;;1999.90;999.90;;;22.10;99.90;;;;;;5018008;28;20446;-71
2023/05/05 08:50:58;;;;;;;1999.90;999.90;;;21.90;99.90;;;;;;5031118;28;20396;-70
2023/05/05 08:53:35;;;;;;;1999.90;999.90;;;21.90;99.90;;;;;;5031001;28;20435;-71
2023/05/05 08:56:02;;;;;;;1999.90;999.90;;;21.90;99.90;;;;;;5025745;28;20397;-69
2023/05/05 08:58:30;;;;;;;1999.90;999.90;;;21.90;99.90;;;;;;5026841;28;20642;-70
2023/05/05 09:00:56;;;;;;;1999.90;999.90;;;21.90;99.90;;;;;;5033971;28;20984;-70
2023/05/05 09:03:22;;;;;;;1999.90;999.90;;;21.60;99.90;;;;;;5034565;28;20445;-70
2023/05/05 09:05:49;;;;;;;1999.90;999.90;;;21.30;99.90;;;;;;5022349;28;20408;-73
2023/05/05 09:08:16;;;;;;;1999.90;999.90;;;21.20;99.90;;;;;;5026171;28;20421;-70
2023/05/05 09:10:43;;;;;;;1999.90;999.90;;;21.30;99.90;;;;;;5034808;28;20391;-70
2023/05/05 09:13:09;;;;;;;1999.90;999.90;;;21.60;99.90;;;;;;5035063;28;20427;-72
2023/05/05 09:15:37;;;;;;;1999.90;999.90;;;21.70;99.90;;;;;;5034809;28;20447;-71
2023/05/05 09:18:07;;;;;;;1999.90;999.90;;;21.50;99.90;;;;;;5035109;28;20466;-70
2023/05/05 09:20:34;;;;;;;1999.90;999.90;;;21.80;99.90;;;;;;5035438;28;20462;-70
2023/05/05 09:23:11;;;;;;;1999.90;999.90;;;21.90;99.90;;;;;;5030825;28;20447;-70
2023/05/05 09:25:38;;;;;;;1999.90;999.90;;;22.10;99.90;;;;;;5026794;28;20441;-70
2023/05/05 09:28:11;;;;;;;1999.90;999.90;;;22.40;99.90;;;;;;5035024;28;20414;-69
2023/05/05 09:30:38;;;;;;;1999.90;999.90;;;22.40;99.90;;;;;;5034226;28;20435;-70
2023/05/05 09:33:04;;;;;;;1999.90;999.90;;;22.30;99.90;;;;;;5034408;28;20457;-70
2023/05/05 09:35:50;;;;;;;1999.90;999.90;;;22.30;99.90;;;;;;5034503;28;20438;-69
2023/05/05 09:38:17;;;;;;;1999.90;999.90;;;22.30;99.90;;;;;;5033502;28;20394;-69
2023/05/05 09:40:47;;;;;;;1999.90;999.90;;;22.70;99.90;;;;;;5034691;28;20747;-70
2023/05/05 09:43:13;;;;;;;1999.90;999.90;;;23.00;99.90;;;;;;5034393;28;20413;-70
2023/05/05 09:45:38;;;;;;;1999.90;999.90;;;23.30;99.90;;;;;;5033925;28;20429;-70
2023/05/05 09:48:08;;;;;;;1999.90;999.90;;;23.20;99.90;;;;;;5034638;28;20413;-69
2023/05/05 09:50:43;;;;;;;1999.90;999.90;;;23.10;99.90;;;;;;5034495;28;20176;-70
2023/05/05 09:53:10;;;;;;;1999.90;999.90;;;23.00;99.90;;;;;;5033730;28;20448;-70
2023/05/05 09:55:36;;;;;;;1999.90;999.90;;;23.00;99.90;;;;;;5032274;28;20487;-70
2023/05/05 09:58:25;;;;;;;1999.90;999.90;;;22.90;99.90;;;;;;5027562;28;20418;-70
2023/05/05 10:00:52;;;;;;;1999.90;999.90;;;22.50;99.90;;;;;;4994872;28;20374;-70
2023/05/05 10:03:18;;;;;;;1999.90;999.90;;;22.10;99.90;;;;;;4994933;28;20408;-69
2023/05/05 10:05:49;;;;;;;1999.90;999.90;;;21.90;99.90;;;;;;4994497;28;20479;-70
2023/05/05 10:08:15;;;;;;;1999.90;999.90;;;21.70;99.90;;;;;;4995262;28;20409;-70
2023/05/05 10:10:51;;;;;;;1999.90;999.90;;;21.50;99.90;;;;;;4994677;28;20842;-70
2023/05/05 10:13:19;;;;;;;1999.90;999.90;;;21.20;99.90;;;;;;4993749;28;20506;-70
2023/05/05 10:15:46;;;;;;;1999.90;999.90;;;20.90;99.90;;;;;;4994768;28;20412;-69
2023/05/05 10:18:20;;;;;;;1999.90;999.90;;;20.70;99.90;;;;;;4994607;28;20962;-70
2023/05/05 10:20:50;;;;;;;1999.90;999.90;;;20.80;99.90;;;;;;4994275;28;20930;-70
2023/05/05 10:23:19;;;;;;;1999.90;999.90;;;20.90;99.90;;;;;;4995032;28;20733;-70
2023/05/05 10:26:00;;;;;;;1999.90;999.90;;;20.90;99.90;;;;;;4994781;28;20808;-70
2023/05/05 10:28:44;;;;;;;1999.90;999.90;;;20.70;99.90;;;;;;4993876;28;20754;-70
2023/05/05 10:31:17;;;;;;;1999.90;999.90;;;20.60;99.90;;;;;;4993855;28;20434;-70
2023/05/05 10:33:55;;;;;;;1999.90;999.90;;;20.40;99.90;;;;;;4993664;28;20470;-70
2023/05/05 10:36:23;;;;;;;1999.90;999.90;;;20.20;99.90;;;;;;4993490;28;20412;-69
2023/05/05 10:38:52;;;;;;;1999.90;999.90;;;20.20;99.90;;;;;;4993960;28;20415;-69
2023/05/05 10:41:19;;;;;;;1999.90;999.90;;;20.20;99.90;;;;;;4993493;28;20407;-69
2023/05/05 10:43:45;;;;;;;1999.90;999.90;;;20.20;99.90;;;;;;4993446;28;20429;-69
2023/05/05 10:46:11;;;;;;;1999.90;999.90;;;20.20;99.90;;;;;;4993887;28;20445;-70
2023/05/05 10:48:54;;;;;;;1999.90;999.90;;;20.30;99.90;;;;;;4993308;28;20442;-70
2023/05/05 10:51:31;;;;;;;1999.90;999.90;;;20.30;99.90;;;;;;4993175;28;20180;-70
2023/05/05 10:54:11;;;;;;;1999.90;999.90;;;20.50;99.90;;;;;;4994275;28;20833;-70
2023/05/05 10:56:39;;;;;;;1999.90;999.90;;;20.30;99.90;;;;;;4994027;28;20382;-69
2023/05/05 10:59:36;;;;;;;1999.90;999.90;;;20.20;99.90;;;;;;4993542;28;20424;-70
2023/05/05 11:02:27;;;;;;;1999.90;999.90;;;20.00;99.90;;;;;;4993937;28;20407;-69
2023/05/05 11:05:09;;;;;;;1999.90;999.90;;;19.80;99.90;;;;;;5009734;28;20435;-70
2023/05/05 11:07:38;;;;;;;1999.90;999.90;;;19.70;99.90;;;;;;5024725;28;20790;-70
2023/05/05 11:10:08;;;;;;;1999.90;999.90;;;19.60;99.90;;;;;;5032989;28;20485;-69
2023/05/05 11:12:56;;;;;;;1999.90;999.90;;;19.50;99.90;;;;;;5031880;28;20447;-70
2023/05/05 11:15:28;;;;;;;1999.90;999.90;;;19.50;99.90;;;;;;5032349;28;20446;-70
2023/05/05 11:17:55;;;;;;;1999.90;999.90;;;19.30;99.90;;;;;;5032814;28;20901;-69
2023/05/05 11:20:36;;;;;;;1999.90;999.90;;;19.10;99.90;;;;;;5032094;28;20788;-69
2023/05/05 11:23:02;;;;;;;1999.90;999.90;;;18.50;99.90;;;;;;5032173;28;20397;-69
2023/05/05 11:25:33;;;;;;;1999.90;999.90;;;18.20;99.90;;;;;;5032466;28;20488;-69
2023/05/05 11:28:09;;;;;;;1999.90;999.90;;;18.10;99.90;;;;;;5031858;28;20174;-69
2023/05/05 11:30:53;;;;;;;1999.90;999.90;;;18.10;99.90;;;;;;5032718;28;20405;-70
2023/05/05 11:33:29;;;;;;;1999.90;999.90;;;18.30;99.90;;;;;;5032657;28;20445;-70
2023/05/05 11:36:05;;;;;;;1999.90;999.90;;;18.40;99.90;;;;;;5031653;28;20856;-69
2023/05/05 11:39:02;;;;;;;1999.90;999.90;;;18.50;99.90;;;;;;5032222;28;20417;-69
2023/05/05 11:41:31;;;;;;;1999.90;999.90;;;18.60;99.90;;;;;;5032466;28;20424;-69
2023/05/05 11:44:12;;;;;;;1999.90;999.90;;;18.80;99.90;;;;;;5032118;28;20433;-69
2023/05/05 11:46:39;;;;;;;1999.90;999.90;;;19.30;99.90;;;;;;5032306;28;20404;-70
2023/05/05 11:49:06;;;;;;;1999.90;999.90;;;19.70;99.90;;;;;;5032176;28;20405;-70
2023/05/05 11:51:32;;;;;;;1999.90;999.90;;;20.20;99.90;;;;;;5031071;28;20405;-70
2023/05/05 11:53:58;;;;;;;1999.90;999.90;;;20.60;99.90;;;;;;5031770;28;20507;-70
2023/05/05 11:56:24;;;;;;;1999.90;999.90;;;21.00;99.90;;;;;;5032036;28;20539;-71
2023/05/05 11:59:09;;;;;;;1999.90;999.90;;;21.30;99.90;;;;;;5013891;28;20865;-70
2023/05/05 12:01:42;;;;;;;1999.90;999.90;;;21.50;99.90;;;;;;5031440;28;20465;-70
2023/05/05 12:04:11;;;;;;;1999.90;999.90;;;21.80;99.90;;;;;;5031451;28;20966;-70
2023/05/05 12:06:37;;;;;;;1999.90;999.90;;;22.10;99.90;;;;;;5031806;28;20415;-70